Time;durP1;ratioP1;P1;durP2;ratioP2;P2;SDS_P1;SDS_P2;PMS_P1;PMS_P2;Temp;Humidity;BMP_temperature;BMP_pressure;BME280_temperature;BME280_humidity;BME280_pressure;Samples;Min_cycle;Max_cycle;Signal;HPM_P1;HPM_P2
2022/06/27 00:00:51;;;;;;;8.00;6.62;;;;;;;21.29;52.34;100226.73;2106998;83;27683;-65
2022/06/27 00:03:53;;;;;;;7.40;6.15;;;;;;;21.20;52.46;100223.02;2104412;84;28642;-67
2022/06/27 00:06:54;;;;;;;6.22;5.60;;;;;;;21.13;52.86;100223.23;2104029;84;32130;-70
2022/06/27 00:09:55;;;;;;;7.10;5.28;;;;;;;21.05;52.74;100223.97;2104359;84;33077;-62
2022/06/27 00:12:57;;;;;;;9.55;6.30;;;;;;;20.98;53.04;100226.94;2104454;84;30041;-61
2022/06/27 00:15:58;;;;;;;7.83;6.08;;;;;;;20.91;53.17;100221.22;2104513;84;27747;-64
2022/06/27 00:18:59;;;;;;;6.75;5.97;;;;;;;20.87;53.61;100226.59;2104447;84;28680;-61
2022/06/27 00:22:01;;;;;;;8.58;6.00;;;;;;;20.83;53.41;100222.44;2104581;84;31015;-62
2022/06/27 00:25:03;;;;;;;7.80;6.08;;;;;;;20.78;53.59;100221.52;2107954;84;32859;-62
2022/06/27 00:28:04;;;;;;;14.10;6.72;;;;;;;20.73;53.81;100222.41;2115148;84;29628;-63
2022/06/27 00:31:06;;;;;;;9.38;6.12;;;;;;;20.69;53.90;100222.33;2115327;84;27658;-61
2022/06/27 00:34:07;;;;;;;8.13;6.62;;;;;;;20.64;53.86;100225.49;2115089;84;29045;-62
2022/06/27 00:37:11;;;;;;;8.20;5.92;;;;;;;20.59;54.03;100233.73;2115225;82;31025;-62
2022/06/27 00:40:12;;;;;;;6.37;5.87;;;;;;;20.54;54.18;100231.94;1998874;88;33863;-61
2022/06/27 00:43:14;;;;;;;6.10;5.42;;;;;;;20.47;54.21;100236.61;1998489;89;30953;-61
2022/06/27 00:46:16;;;;;;;7.53;6.03;;;;;;;20.41;54.57;100235.80;1998679;88;27745;-61
2022/06/27 00:49:17;;;;;;;9.48;6.45;;;;;;;20.38;54.77;100237.95;1998454;89;28853;-62
2022/06/27 00:52:19;;;;;;;7.60;6.20;;;;;;;20.36;54.80;100237.23;1998779;89;31050;-61
2022/06/27 00:55:20;;;;;;;8.55;6.15;;;;;;;20.32;55.06;100229.86;1999304;89;33191;-61
2022/06/27 00:58:22;;;;;;;9.75;6.78;;;;;;;20.30;55.03;100234.58;2000150;89;30355;-62
2022/06/27 01:01:24;;;;;;;6.90;6.20;;;;;;;20.26;54.96;100234.50;2000724;89;27737;-65
2022/06/27 01:04:27;;;;;;;7.42;6.72;;;;;;;20.24;55.24;100236.49;1979233;89;27591;-63
2022/06/27 01:07:28;;;;;;;8.18;6.75;;;;;;;20.23;55.48;100233.41;1979495;89;30886;-64
2022/06/27 01:10:33;;;;;;;8.65;6.50;;;;;;;20.22;55.41;100231.69;2000201;89;32943;-63
2022/06/27 01:13:35;;;;;;;8.18;6.55;;;;;;;20.18;55.43;100233.84;1979124;89;30215;-69
2022/06/27 01:16:37;;;;;;;6.60;2.90;;;;;;;20.17;55.61;100231.64;2000569;89;28465;-62
2022/06/27 01:19:40;;;;;;;9.20;5.90;;;;;;;20.15;55.75;100231.39;2000494;89;29071;-61
2022/06/27 01:22:44;;;;;;;8.10;6.05;;;;;;;20.13;55.57;100236.98;2000092;89;27868;-63
2022/06/27 01:25:45;;;;;;;7.75;6.65;;;;;;;20.10;55.68;100235.91;1999559;89;32658;-63
2022/06/27 01:28:46;;;;;;;9.35;6.50;;;;;;;20.09;55.81;100237.41;1999048;89;30786;-61
2022/06/27 01:31:49;;;;;;;10.53;6.65;;;;;;;20.04;55.69;100228.29;1998639;89;28299;-61
2022/06/27 01:34:50;;;;;;;9.30;6.85;;;;;;;20.02;55.79;100227.59;1998939;89;29840;-62
2022/06/27 01:37:51;;;;;;;9.98;6.28;;;;;;;19.99;55.83;100230.59;2096522;84;32076;-61
2022/06/27 01:40:53;;;;;;;8.23;6.28;;;;;;;19.95;55.84;100230.50;2114729;83;34130;-61
2022/06/27 01:43:54;;;;;;;6.53;5.92;;;;;;;19.91;55.83;100229.05;2114872;84;30489;-61
2022/06/27 01:47:06;;;;;;;7.53;6.10;;;;;;;19.84;55.94;100230.95;2115040;82;27808;-63
2022/06/27 01:50:13;;;;;;;7.80;6.58;;;;;;;19.78;56.06;100228.77;2114725;84;29608;-61
2022/06/27 01:53:15;;;;;;;7.15;6.10;;;;;;;19.70;56.18;100229.94;2114473;84;31062;-65
2022/06/27 01:56:16;;;;;;;6.72;6.03;;;;;;;19.65;56.22;100225.44;2084857;84;33355;-64
2022/06/27 01:59:21;;;;;;;9.93;5.78;;;;;;;19.59;56.41;100229.57;2084707;84;29637;-64
2022/06/27 02:02:23;;;;;;;7.70;5.83;;;;;;;19.52;56.79;100225.18;2115562;83;28252;-61
2022/06/27 02:05:25;;;;;;;9.35;6.62;;;;;;;19.47;56.75;100218.41;2114690;84;28300;-61
2022/06/27 02:08:27;;;;;;;6.90;5.67;;;;;;;19.42;57.02;100221.54;2114646;84;32259;-61
2022/06/27 02:11:31;;;;;;;10.32;6.17;;;;;;;19.39;57.08;100219.09;2114509;83;34309;-63
2022/06/27 02:14:32;;;;;;;6.87;6.17;;;;;;;19.36;57.01;100216.16;2115301;84;30547;-60
2022/06/27 02:17:33;;;;;;;9.83;6.10;;;;;;;19.34;57.31;100218.66;2115373;84;28230;-61
2022/06/27 02:20:35;;;;;;;6.50;5.85;;;;;;;19.32;57.42;100222.84;2082932;84;29059;-61
2022/06/27 02:23:37;;;;;;;7.60;6.80;;;;;;;19.31;57.33;100225.20;2104388;84;31401;-60
2022/06/27 02:26:39;;;;;;;8.80;5.90;;;;;;;19.30;57.61;100222.12;2104303;84;33741;-61
2022/06/27 02:29:40;;;;;;;8.58;6.33;;;;;;;19.30;57.50;100219.40;2104594;84;30014;-65
2022/06/27 02:32:42;;;;;;;8.75;6.47;;;;;;;19.30;57.58;100219.91;2105136;84;27653;-62
2022/06/27 02:35:45;;;;;;;12.25;6.85;;;;;;;19.30;57.58;100230.27;2104691;84;28677;-61
2022/06/27 02:38:50;;;;;;;10.80;6.70;;;;;;;19.30;57.74;100232.14;2104723;84;31838;-61
2022/06/27 02:41:56;;;;;;;9.33;6.90;;;;;;;19.30;57.65;100236.21;2104260;84;33854;-61
2022/06/27 02:44:58;;;;;;;11.38;7.33;;;;;;;19.31;57.78;100242.01;2104655;84;29660;-62
2022/06/27 02:48:01;;;;;;;9.58;6.25;;;;;;;19.31;57.94;100246.92;2104457;83;27743;-60
2022/06/27 02:51:06;;;;;;;11.05;7.05;;;;;;;19.32;58.31;100245.09;2107718;84;28684;-61
2022/06/27 02:54:21;;;;;;;;;;;;;;;19.35;57.91;100251.11;2117100;83;31411;-61
2022/06/27 02:58:02;;;;;;;8.95;7.03;;;;;;;19.38;58.10;100256.76;2115115;84;33456;-61
2022/06/27 03:01:04;;;;;;;10.65;6.67;;;;;;;19.41;57.91;100257.85;2115732;84;30020;-61
2022/06/27 03:04:05;;;;;;;6.83;6.22;;;;;;;19.44;57.90;100256.23;2115016;84;27643;-61
2022/06/27 03:07:07;;;;;;;7.42;6.70;;;;;;;19.49;57.91;100258.53;2114923;84;28699;-61
2022/06/27 03:10:10;;;;;;;8.83;6.55;;;;;;;19.51;57.85;100260.14;2115193;84;32196;-61
2022/06/27 03:13:14;;;;;;;10.48;5.67;;;;;;;19.55;57.87;100256.65;2115131;84;33772;-61
2022/06/27 03:16:17;;;;;;;9.25;6.15;;;;;;;19.55;57.94;100257.48;2114867;83;30617;-64
2022/06/27 03:19:19;;;;;;;8.88;6.78;;;;;;;19.59;57.92;100258.95;2115404;83;27680;-60
2022/06/27 03:22:20;;;;;;;11.22;7.00;;;;;;;19.65;57.86;100262.12;2105982;84;29182;-60
2022/06/27 03:25:21;;;;;;;10.00;7.78;;;;;;;19.69;57.70;100261.71;2104553;84;31026;-65
2022/06/27 03:28:23;;;;;;;10.40;8.13;;;;;;;19.76;57.70;100257.95;2104404;84;33400;-61
2022/06/27 03:31:24;;;;;;;8.75;6.92;;;;;;;19.84;57.79;100262.22;2104585;84;30427;-61
2022/06/27 03:34:25;;;;;;;12.45;7.08;;;;;;;19.90;57.61;100258.11;2104767;84;27590;-61
2022/06/27 03:37:27;;;;;;;11.53;7.15;;;;;;;19.98;57.58;100258.78;2104729;84;29045;-65
2022/06/27 03:40:28;;;;;;;9.45;7.65;;;;;;;20.04;57.51;100269.96;2104253;84;32256;-61
2022/06/27 03:43:30;;;;;;;11.15;7.30;;;;;;;20.07;57.54;100267.45;2104530;84;32964;-67
2022/06/27 03:46:32;;;;;;;8.68;5.37;;;;;;;20.10;57.38;100264.46;2104794;84;30782;-60
2022/06/27 03:52:55;;;;;;;9.85;7.33;;;;;;;20.21;57.57;100270.29;2120326;83;29984;-63
2022/06/27 03:55:56;;;;;;;15.43;7.83;;;;;;;20.29;57.29;100264.14;2120442;83;31060;-61
2022/06/27 03:58:58;;;;;;;10.55;6.85;;;;;;;20.37;57.22;100267.01;2120775;84;33484;-63
2022/06/27 04:01:59;;;;;;;11.12;6.70;;;;;;;20.46;57.20;100268.90;2120477;84;29634;-61
2022/06/27 04:05:02;;;;;;;6.03;5.03;;;;;;;20.53;56.92;100269.67;2120344;83;28202;-62
2022/06/27 04:08:05;;;;;;;9.05;7.15;;;;;;;20.59;56.97;100274.08;2120292;84;28684;-71
2022/06/27 04:11:06;;;;;;;8.75;6.65;;;;;;;20.69;56.75;100275.41;2120500;84;31418;-67
2022/06/27 04:14:07;;;;;;;12.00;7.05;;;;;;;20.78;56.62;100278.69;2120587;84;33361;-62
2022/06/27 04:17:11;;;;;;;8.18;6.78;;;;;;;20.87;56.58;100274.25;2120738;83;27630;-70
2022/06/27 04:20:12;;;;;;;9.95;6.75;;;;;;;20.97;56.50;100283.78;2122266;83;27640;-63
2022/06/27 04:23:13;;;;;;;8.90;6.92;;;;;;;21.08;56.30;100284.13;2122124;83;29063;-62
2022/06/27 04:26:15;;;;;;;7.95;6.55;;;;;;;21.21;56.18;100272.91;2122059;83;31161;-62
2022/06/27 04:29:16;;;;;;;9.00;7.12;;;;;;;21.35;56.06;100283.86;2122046;83;33327;-64
2022/06/27 04:32:19;;;;;;;9.28;5.85;;;;;;;21.46;55.89;100280.11;2121994;83;30027;-61
2022/06/27 04:35:21;;;;;;;9.38;5.85;;;;;;;21.58;55.93;100280.80;2122039;83;28360;-62
2022/06/27 04:38:23;;;;;;;6.75;5.60;;;;;;;21.73;55.76;100279.34;2122072;83;28489;-65
2022/06/27 04:41:26;;;;;;;10.58;6.60;;;;;;;21.90;55.53;100276.83;2121462;83;27856;-61
2022/06/27 04:44:28;;;;;;;10.15;5.70;;;;;;;22.08;55.29;100275.02;2121825;83;34238;-61
2022/06/27 04:47:32;;;;;;;8.40;6.60;;;;;;;22.26;55.17;100273.67;2119302;83;30823;-61
2022/06/27 04:50:34;;;;;;;6.05;5.22;;;;;;;22.76;54.92;100275.58;2104283;84;27623;-61
2022/06/27 04:53:36;;;;;;;7.15;6.30;;;;;;;23.96;54.77;100278.66;2104857;84;29277;-62
2022/06/27 04:56:42;;;;;;;4.00;2.75;;;;;;;25.47;53.52;100269.14;2104098;84;31066;-62
2022/06/27 04:59:41;;;;;;;6.05;4.85;;;;;;;26.91;51.85;100267.59;2104206;84;33120;-62
2022/06/27 05:02:43;;;;;;;5.65;4.95;;;;;;;28.11;50.10;100264.16;2104504;84;29468;-61
2022/06/27 05:05:44;;;;;;;4.50;4.10;;;;;;;29.40;48.78;100261.13;2104387;84;28238;-63
2022/06/27 05:08:46;;;;;;;8.58;4.10;;;;;;;30.47;46.08;100263.58;2103994;84;29608;-67
2022/06/27 05:11:50;;;;;;;3.37;2.40;;;;;;;31.49;44.93;100269.02;2104219;84;31228;-62
2022/06/27 05:14:54;;;;;;;5.67;4.22;;;;;;;32.42;42.11;100264.25;2105544;84;32983;-61
2022/06/27 05:17:58;;;;;;;8.15;4.42;;;;;;;33.04;40.45;100268.34;2115327;84;30042;-61
2022/06/27 05:20:59;;;;;;;9.00;5.22;;;;;;;33.39;38.54;100281.73;2086208;84;27682;-61
2022/06/27 05:24:00;;;;;;;8.68;4.35;;;;;;;33.75;37.78;100275.06;2109132;84;28640;-61
2022/06/27 05:27:02;;;;;;;7.58;5.15;;;;;;;34.01;36.33;100272.55;2105847;84;30772;-66
2022/06/27 05:30:05;;;;;;;13.70;5.95;;;;;;;34.62;36.21;100271.77;2105703;84;33005;-65
2022/06/27 05:33:07;;;;;;;8.18;5.70;;;;;;;34.90;35.59;100266.95;2105573;84;29636;-66
2022/06/27 05:36:10;;;;;;;8.28;5.00;;;;;;;35.22;35.36;100263.00;2105730;84;27765;-64
2022/06/27 05:39:11;;;;;;;9.80;5.35;;;;;;;35.75;33.72;100259.78;2105854;84;29407;-64
2022/06/27 05:42:13;;;;;;;9.23;5.08;;;;;;;36.32;34.19;100267.41;2105550;84;31249;-66
2022/06/27 05:45:15;;;;;;;15.48;4.90;;;;;;;36.78;32.16;100273.61;2105521;84;32985;-65
2022/06/27 05:48:17;;;;;;;6.58;5.30;;;;;;;36.98;31.55;100277.89;2077313;83;30492;-65
2022/06/27 05:51:20;;;;;;;7.10;5.70;;;;;;;37.27;31.99;100281.42;2122572;83;27673;-65
2022/06/27 05:54:22;;;;;;;10.68;5.05;;;;;;;37.54;30.51;100280.77;2121014;83;28732;-63
2022/06/27 05:57:24;;;;;;;8.05;5.53;;;;;;;37.80;29.71;100274.13;2120736;83;31198;-64
2022/06/27 06:00:27;;;;;;;11.73;5.17;;;;;;;37.91;29.51;100268.15;2120512;84;33193;-64
2022/06/27 06:03:29;;;;;;;5.37;4.97;;;;;;;38.02;28.91;100274.72;2120441;84;29683;-63
2022/06/27 06:06:31;;;;;;;6.13;5.53;;;;;;;38.21;28.19;100270.48;2121005;83;27728;-63
2022/06/27 06:09:33;;;;;;;7.17;5.60;;;;;;;38.37;28.06;100268.72;2120545;84;28644;-64
2022/06/27 06:12:35;;;;;;;11.63;5.67;;;;;;;38.73;28.04;100263.49;2120624;84;31881;-64
2022/06/27 06:15:38;;;;;;;5.95;4.83;;;;;;;38.99;27.63;100259.53;2121981;83;32999;-64
2022/06/27 06:18:39;;;;;;;8.20;5.15;;;;;;;39.28;27.37;100258.35;2125720;83;29704;-70
2022/06/27 06:21:41;;;;;;;8.53;5.55;;;;;;;39.43;27.15;100254.84;2125647;83;27609;-67
2022/06/27 06:24:42;;;;;;;8.15;5.67;;;;;;;39.75;26.63;100258.14;2125628;83;29306;-69
2022/06/27 06:27:44;;;;;;;8.10;4.53;;;;;;;39.96;26.30;100259.07;2125569;83;31181;-64
2022/06/27 06:30:45;;;;;;;8.60;5.12;;;;;;;40.05;25.60;100256.00;2125514;83;32987;-65
2022/06/27 06:33:49;;;;;;;6.05;5.45;;;;;;;40.15;25.36;100258.58;2125595;83;29624;-64
2022/06/27 06:36:51;;;;;;;6.67;5.15;;;;;;;39.89;24.79;100251.45;2125602;83;27724;-67
2022/06/27 06:39:52;;;;;;;6.67;5.47;;;;;;;39.87;24.94;100254.55;2125529;83;28628;-65
2022/06/27 06:42:54;;;;;;;6.72;5.33;;;;;;;39.79;24.66;100253.11;2125636;83;30989;-65
2022/06/27 06:45:56;;;;;;;9.15;5.10;;;;;;;39.74;24.68;100246.64;2122956;83;33202;-68
2022/06/27 06:49:05;;;;;;;6.25;5.65;;;;;;;40.00;24.61;100254.61;2115022;84;30420;-70
2022/06/27 06:52:06;;;;;;;5.90;4.45;;;;;;;40.30;24.89;100253.58;2104373;84;28116;-67
2022/06/27 06:55:09;;;;;;;9.35;4.87;;;;;;;40.71;24.53;100259.31;2104357;84;28666;-70
2022/06/27 06:58:11;;;;;;;8.63;5.22;;;;;;;40.96;24.57;100258.48;2104276;84;30708;-75
2022/06/27 07:01:12;;;;;;;8.28;4.80;;;;;;;41.25;24.44;100260.72;2104229;84;32964;-64
2022/06/27 07:04:15;;;;;;;6.78;4.67;;;;;;;41.69;23.94;100250.81;2104003;84;29631;-66
2022/06/27 07:07:17;;;;;;;5.53;4.50;;;;;;;41.77;23.13;100250.78;2104442;84;27594;-64
2022/06/27 07:10:19;;;;;;;7.23;5.00;;;;;;;41.75;23.47;100247.41;2104573;84;28678;-65
2022/06/27 07:13:20;;;;;;;10.75;5.55;;;;;;;41.56;22.75;100257.05;2104266;83;31028;-64
2022/06/27 07:16:23;;;;;;;11.10;5.05;;;;;;;41.42;23.09;100251.13;2105268;84;32964;-67
2022/06/27 07:19:26;;;;;;;5.50;4.95;;;;;;;41.42;23.05;100244.10;2105727;84;30426;-63
2022/06/27 07:22:28;;;;;;;12.53;4.70;;;;;;;41.40;22.96;100236.52;2105902;83;27729;-59
2022/06/27 07:25:29;;;;;;;5.78;4.12;;;;;;;41.49;22.77;100244.66;2105860;84;28607;-59
2022/06/27 07:28:31;;;;;;;6.30;4.58;;;;;;;41.25;22.28;100243.03;2105728;83;31980;-62
2022/06/27 07:31:32;;;;;;;5.08;4.40;;;;;;;40.93;23.04;100239.94;2105867;83;32951;-59
2022/06/27 07:34:35;;;;;;;3.62;3.33;;;;;;;40.49;22.46;100239.88;2105979;84;29674;-59
2022/06/27 07:37:44;;;;;;;5.55;5.05;;;;;;;40.31;22.10;100235.08;2106206;84;35509;-65
2022/06/27 07:40:46;;;;;;;8.40;4.50;;;;;;;39.84;22.71;100241.63;2105678;83;28809;-59
2022/06/27 07:43:48;;;;;;;;;;;;;;;39.60;23.21;100237.83;2108548;84;30992;-61
2022/06/27 07:46:50;;;;;;;5.15;4.62;;;;;;;39.46;23.35;100232.72;2104411;84;34399;-60
2022/06/27 07:49:51;;;;;;;15.68;4.30;;;;;;;39.58;23.49;100233.91;2103929;83;29348;-61
2022/06/27 07:56:15;;;;;;;4.17;3.87;;;;;;;39.71;23.36;100232.58;2104325;84;29997;-60
2022/06/27 07:59:18;;;;;;;4.17;3.80;;;;;;;39.61;23.12;100230.56;2104357;84;31034;-62
2022/06/27 08:02:19;;;;;;;3.85;3.40;;;;;;;39.47;23.09;100224.59;2104130;84;33820;-62
2022/06/27 08:05:21;;;;;;;6.90;4.25;;;;;;;39.50;23.15;100214.24;2104408;84;29454;-63
2022/06/27 08:08:23;;;;;;;6.22;3.50;;;;;;;39.43;23.01;100225.41;2104400;84;28184;-64
2022/06/27 08:11:29;;;;;;;4.60;3.83;;;;;;;39.60;22.45;100233.63;2104460;84;29057;-62
2022/06/27 08:14:31;;;;;;;4.03;3.62;;;;;;;39.40;22.52;100223.15;2103204;84;31011;-62
2022/06/27 08:17:32;;;;;;;4.25;3.42;;;;;;;39.37;23.47;100227.89;2104141;84;33363;-61
2022/06/27 08:20:35;;;;;;;2.72;2.40;;;;;;;39.65;23.15;100229.45;2104299;84;29403;-62
2022/06/27 08:23:38;;;;;;;5.60;3.35;;;;;;;39.78;23.16;100235.99;2104443;84;28447;-61
2022/06/27 08:26:39;;;;;;;4.28;3.95;;;;;;;39.94;22.85;100232.70;2104550;84;28425;-61
2022/06/27 08:29:41;;;;;;;2.98;2.20;;;;;;;39.76;22.32;100238.22;2104000;84;31702;-62
2022/06/27 08:32:43;;;;;;;3.60;3.37;;;;;;;39.47;23.06;100223.73;2104184;84;33755;-61
2022/06/27 08:35:47;;;;;;;4.50;3.30;;;;;;;39.63;22.63;100231.11;2104507;84;29604;-62
2022/06/27 08:38:50;;;;;;;;;;;;;;;39.74;22.14;100225.60;2108014;84;27650;-70
2022/06/27 08:41:52;;;;;;;;;;;;;;;39.73;22.73;100229.48;2108059;84;28646;-74
2022/06/27 08:44:54;;;;;;;4.42;3.87;;;;;;;40.13;23.00;100225.16;2105565;84;31839;-75
2022/06/27 08:48:06;;;;;;;5.42;3.42;;;;;;;40.42;22.58;100219.10;2105400;84;33759;-70
2022/06/27 08:51:04;;;;;;;6.65;3.67;;;;;;;40.56;22.03;100225.85;2104102;84;30510;-73
2022/06/27 08:54:06;;;;;;;5.65;3.30;;;;;;;40.66;22.31;100227.00;2105704;84;27774;-73
2022/06/27 08:57:08;;;;;;;3.87;3.47;;;;;;;40.78;21.70;100220.56;2105662;84;28716;-71
2022/06/27 09:00:14;;;;;;;3.37;3.10;;;;;;;40.56;22.11;100223.59;2105332;84;31083;-73
2022/06/27 09:03:23;;;;;;;3.90;3.10;;;;;;;40.31;21.21;100220.19;2105304;84;29747;-70
2022/06/27 09:06:25;;;;;;;8.18;3.40;;;;;;;40.43;21.24;100221.33;2104979;84;30587;-74
2022/06/27 09:09:27;;;;;;;3.47;3.27;;;;;;;40.31;20.86;100225.80;2104645;84;27691;-73
2022/06/27 09:12:30;;;;;;;4.13;2.77;;;;;;;40.35;20.86;100225.53;2104525;84;28717;-67
2022/06/27 09:15:57;;;;;;;3.72;3.33;;;;;;;40.49;20.86;100221.63;2104272;84;31074;-69
2022/06/27 09:19:04;;;;;;;5.53;3.70;;;;;;;40.27;20.50;100219.91;2103754;84;27984;-68
2022/06/27 09:22:14;;;;;;;3.70;3.40;;;;;;;39.91;20.51;100220.63;2104364;84;29678;-68
2022/06/27 09:25:20;;;;;;;3.37;3.08;;;;;;;39.68;20.65;100223.30;2104530;84;27707;-69
2022/06/27 09:28:19;;;;;;;4.08;3.10;;;;;;;39.53;21.08;100212.84;2104710;84;29613;-70
2022/06/27 09:31:33;;;;;;;3.85;3.45;;;;;;;39.48;20.81;100209.46;2122582;83;30662;-70
2022/06/27 09:34:35;;;;;;;6.72;3.30;;;;;;;39.13;20.91;100212.88;2136981;83;32993;-70
2022/06/27 09:37:54;;;;;;;3.52;3.22;;;;;;;38.66;20.62;100203.22;2105212;84;29427;-72
2022/06/27 09:40:56;;;;;;;3.50;3.20;;;;;;;38.38;20.91;100196.82;2105304;84;27614;-69
2022/06/27 09:44:10;;;;;;;4.45;4.05;;;;;;;38.13;21.28;100193.46;2105537;84;28706;-72
2022/06/27 09:47:16;;;;;;;3.92;3.40;;;;;;;37.93;21.66;100189.86;2103832;83;31051;-69
2022/06/27 09:50:19;;;;;;;4.78;3.83;;;;;;;37.62;22.40;100188.06;2106563;84;32404;-66
2022/06/27 09:53:26;;;;;;;5.15;3.42;;;;;;;37.55;22.63;100195.81;2109214;84;29182;-71
2022/06/27 09:56:23;;;;;;;;;;;;;;;37.30;22.53;100193.47;2083588;84;27818;-69
2022/06/27 09:59:25;;;;;;;5.00;3.40;;;;;;;37.01;22.36;100183.27;2109520;84;28674;-68
2022/06/27 10:02:28;;;;;;;4.90;3.40;;;;;;;36.72;22.27;100175.50;2109207;84;31852;-68
2022/06/27 10:05:29;;;;;;;5.28;3.92;;;;;;;36.49;22.58;100174.55;2081490;84;32991;-74
2022/06/27 10:08:32;;;;;;;6.05;3.75;;;;;;;36.10;22.68;100178.01;2109229;84;29633;-64
2022/06/27 10:11:40;;;;;;;5.10;3.85;;;;;;;35.83;23.23;100173.53;2109539;84;27769;-69
2022/06/27 10:14:39;;;;;;;4.37;3.70;;;;;;;35.60;23.42;100164.17;2107482;84;29697;-65
2022/06/27 10:17:49;;;;;;;5.22;4.28;;;;;;;35.51;23.86;100165.63;2109091;84;31077;-68
2022/06/27 10:20:52;;;;;;;5.65;3.77;;;;;;;35.47;24.12;100154.14;2108403;84;33122;-69
2022/06/27 10:24:25;;;;;;;6.87;4.03;;;;;;;35.32;24.28;100157.42;2116360;83;30438;-72
2022/06/27 10:27:29;;;;;;;6.90;5.05;;;;;;;35.04;24.69;100152.59;2128558;83;27715;-70
2022/06/27 10:30:47;;;;;;;6.55;4.00;;;;;;;34.91;25.29;100150.34;2128547;83;29701;-65
2022/06/27 10:33:50;;;;;;;4.50;4.20;;;;;;;34.90;25.66;100150.03;2128621;83;32199;-70
2022/06/27 10:37:18;;;;;;;5.42;4.95;;;;;;;34.74;26.05;100136.28;2117439;83;33421;-69
2022/06/27 10:40:25;;;;;;;4.15;3.80;;;;;;;34.72;26.32;100132.88;2034753;86;31731;-71
2022/06/27 10:43:48;;;;;;;9.60;4.45;;;;;;;34.64;26.46;100122.95;2035352;87;27795;-73
2022/06/27 10:46:49;;;;;;;5.35;4.67;;;;;;;34.43;26.45;100123.00;2034820;87;28443;-67
2022/06/27 10:50:14;;;;;;;4.87;4.47;;;;;;;34.35;26.62;100117.73;2033670;85;32203;-68
2022/06/27 10:53:23;;;;;;;10.48;4.80;;;;;;;34.26;26.72;100127.52;2028340;87;33013;-67
2022/06/27 10:56:45;;;;;;;4.72;4.17;;;;;;;34.08;26.95;100121.81;2028729;87;29713;-67
2022/06/27 10:59:54;;;;;;;4.83;4.42;;;;;;;34.09;27.15;100113.74;2028377;87;27744;-69
2022/06/27 11:02:55;;;;;;;5.65;3.87;;;;;;;34.08;27.31;100106.52;2028539;87;28666;-67
2022/06/27 11:06:02;;;;;;;6.55;4.40;;;;;;;34.14;27.35;100104.72;2028467;87;31259;-68
2022/06/27 11:09:03;;;;;;;4.87;4.37;;;;;;;34.18;27.53;100102.30;2023789;87;33072;-71
2022/06/27 11:12:07;;;;;;;4.53;4.03;;;;;;;34.16;27.45;100103.08;2024358;87;29634;-70
2022/06/27 11:15:11;;;;;;;4.70;4.30;;;;;;;34.20;27.42;100097.34;2079702;84;27782;-69
2022/06/27 11:18:12;;;;;;;6.87;4.28;;;;;;;34.28;26.60;100098.94;2099458;84;28640;-72
2022/06/27 11:21:20;;;;;;;5.75;4.28;;;;;;;34.31;27.09;100101.25;2099418;83;31012;-74
2022/06/27 11:24:21;;;;;;;4.28;3.92;;;;;;;34.40;26.75;100103.97;2098914;84;33865;-73
2022/06/27 11:27:22;;;;;;;8.70;3.95;;;;;;;34.47;26.60;100097.80;2099269;84;30502;-74
2022/06/27 11:33:57;;;;;;;4.30;3.90;;;;;;;34.48;26.09;100094.45;2099217;84;28701;-72
2022/06/27 11:37:04;;;;;;;5.90;4.50;;;;;;;34.49;26.76;100086.41;2101569;84;31875;-72
2022/06/27 11:40:07;;;;;;;4.90;4.45;;;;;;;34.52;26.65;100088.16;2100755;84;32967;-72
2022/06/27 11:43:09;;;;;;;4.87;4.47;;;;;;;34.50;26.66;100077.81;2104333;84;29643;-73
2022/06/27 11:46:24;;;;;;;6.10;4.60;;;;;;;34.35;26.54;100076.02;2104499;84;28176;-72
2022/06/27 11:49:35;;;;;;;5.67;4.15;;;;;;;34.35;26.94;100080.19;2104203;84;28664;-72
2022/06/27 11:52:42;;;;;;;7.25;4.75;;;;;;;34.29;26.56;100083.39;2104162;84;31055;-72
2022/06/27 11:55:43;;;;;;;8.83;4.60;;;;;;;34.17;26.77;100081.14;2103487;84;34138;-72
2022/06/27 11:58:52;;;;;;;6.45;4.87;;;;;;;34.15;27.25;100075.83;2104374;84;29644;-72
2022/06/27 12:02:00;;;;;;;5.53;4.55;;;;;;;34.15;27.39;100074.97;2104285;84;27844;-74
2022/06/27 12:05:07;;;;;;;12.70;5.35;;;;;;;34.18;27.53;100076.72;2104202;84;28717;-73
2022/06/27 12:08:11;;;;;;;6.92;4.40;;;;;;;34.14;27.38;100076.05;2104844;84;31032;-72
2022/06/27 12:11:17;;;;;;;4.95;4.17;;;;;;;34.06;27.60;100079.49;2105243;84;29886;-74
2022/06/27 12:14:20;;;;;;;6.00;4.53;;;;;;;34.00;27.69;100066.53;2105730;84;30419;-73
2022/06/27 12:17:23;;;;;;;9.65;5.03;;;;;;;33.98;28.17;100062.31;2105923;83;28207;-73
2022/06/27 12:20:28;;;;;;;14.23;5.15;;;;;;;34.02;28.44;100062.98;2105646;83;28863;-73
2022/06/27 12:23:30;;;;;;;8.75;5.03;;;;;;;34.13;28.62;100060.45;2105946;83;31078;-74
2022/06/27 12:26:31;;;;;;;9.10;5.20;;;;;;;34.13;28.45;100061.84;2105865;83;33766;-72
2022/06/27 12:29:33;;;;;;;10.00;5.22;;;;;;;34.05;28.28;100064.42;2105838;84;29607;-73
2022/06/27 12:32:35;;;;;;;5.03;4.05;;;;;;;33.92;28.21;100069.11;2105735;84;27726;-74
2022/06/27 12:35:37;;;;;;;5.50;4.17;;;;;;;33.89;28.37;100058.46;2105796;84;28675;-73
2022/06/27 12:38:38;;;;;;;7.42;4.72;;;;;;;33.89;28.29;100059.02;2104287;84;31014;-73
2022/06/27 12:41:41;;;;;;;16.87;4.85;;;;;;;33.87;28.32;100042.53;2104055;84;33015;-73
2022/06/27 12:44:43;;;;;;;7.42;4.40;;;;;;;33.92;28.86;100039.92;2104092;84;30702;-73
2022/06/27 12:47:45;;;;;;;5.50;3.35;;;;;;;34.02;28.54;100047.69;2104094;84;27719;-74
2022/06/27 12:50:46;;;;;;;6.65;3.30;;;;;;;34.07;28.30;100038.62;2104018;84;28704;-73
2022/06/27 12:53:50;;;;;;;5.05;3.20;;;;;;;34.17;28.18;100043.61;2103319;84;27844;-74
2022/06/27 12:56:52;;;;;;;5.53;2.90;;;;;;;34.17;27.51;100044.44;2104065;84;32991;-75
2022/06/27 12:59:53;;;;;;;4.28;2.83;;;;;;;34.16;27.25;100046.08;2105254;84;30430;-73
2022/06/27 13:02:55;;;;;;;4.08;3.22;;;;;;;34.14;27.40;100049.11;2105811;84;27663;-73
2022/06/27 13:05:56;;;;;;;6.72;3.08;;;;;;;34.20;27.57;100040.35;2105921;84;29345;-73
2022/06/27 13:08:57;;;;;;;4.70;3.30;;;;;;;34.27;27.66;100039.67;2105701;84;31024;-72
2022/06/27 13:11:59;;;;;;;5.87;3.40;;;;;;;34.30;27.36;100034.20;2105387;84;32950;-73
2022/06/27 13:15:01;;;;;;;6.78;3.27;;;;;;;34.31;27.48;100026.99;2105251;84;29685;-73
2022/06/27 13:18:07;;;;;;;2.70;2.50;;;;;;;34.32;27.47;100025.91;2105517;84;27721;-73
2022/06/27 13:21:08;;;;;;;3.85;3.00;;;;;;;34.27;27.26;100029.11;2105321;84;28700;-73
2022/06/27 13:24:10;;;;;;;5.85;3.00;;;;;;;34.21;27.01;100022.58;2100603;84;30458;-73
2022/06/27 13:27:11;;;;;;;5.30;2.92;;;;;;;34.23;27.45;100019.86;2098659;84;32953;-73
2022/06/27 13:30:15;;;;;;;3.20;2.47;;;;;;;34.26;27.00;100024.08;2098888;83;30411;-74
2022/06/27 13:33:17;;;;;;;4.78;2.30;;;;;;;34.28;27.43;100025.25;2098833;83;27693;-73
2022/06/27 13:36:18;;;;;;;4.47;2.42;;;;;;;34.22;27.00;100023.72;2098844;84;28641;-74
2022/06/27 13:39:21;;;;;;;3.33;2.55;;;;;;;34.12;27.29;100027.65;2098881;84;31883;-73
2022/06/27 13:42:23;;;;;;;4.53;2.92;;;;;;;33.99;27.47;100028.70;2099094;84;32948;-73
2022/06/27 13:45:25;;;;;;;5.10;3.10;;;;;;;33.91;27.43;100024.34;2099159;83;29653;-74
2022/06/27 13:48:27;;;;;;;3.95;2.52;;;;;;;33.95;27.62;100022.48;2099310;83;27682;-73
2022/06/27 13:51:30;;;;;;;3.05;2.75;;;;;;;33.95;27.48;100013.58;2108469;83;28720;-74
2022/06/27 13:54:31;;;;;;;6.40;2.62;;;;;;;33.95;27.77;100018.30;2120895;83;31934;-74
2022/06/27 13:57:32;;;;;;;5.20;2.83;;;;;;;33.88;27.54;100019.22;2120492;84;32955;-74
2022/06/27 14:00:36;;;;;;;2.37;2.20;;;;;;;33.77;27.41;100016.70;2120546;83;29636;-74
2022/06/27 14:03:37;;;;;;;2.33;2.12;;;;;;;33.65;27.72;100010.83;2120634;84;27815;-74
2022/06/27 14:09:59;;;;;;;2.40;2.20;;;;;;;33.62;28.22;100018.55;2120298;84;30610;-74
2022/06/27 14:13:00;;;;;;;2.92;2.72;;;;;;;33.68;28.09;100009.81;2120208;84;33810;-74
2022/06/27 14:16:05;;;;;;;3.92;2.67;;;;;;;33.77;28.53;100014.48;2120522;84;30415;-74
2022/06/27 14:19:06;;;;;;;5.42;2.62;;;;;;;33.78;28.65;100017.02;2120766;84;27721;-73
2022/06/27 14:22:07;;;;;;;7.40;2.72;;;;;;;33.75;28.93;100018.03;2121316;83;29485;-74
2022/06/27 14:25:09;;;;;;;2.65;2.37;;;;;;;33.70;29.03;100013.72;2125658;83;31865;-74